createdAt,value
2023-05-12T00:00:13.156Z,89.63
2023-05-12T00:02:42.452Z,89.46
2023-05-12T00:05:09.595Z,89.44
2023-05-12T00:07:36.660Z,89.45
2023-05-12T00:10:04.243Z,89.31
2023-05-12T00:12:31.144Z,89.50
2023-05-12T00:14:57.984Z,89.56
2023-05-12T00:17:24.924Z,89.50
2023-05-12T00:19:52.002Z,89.30
2023-05-12T00:22:18.855Z,89.10
2023-05-12T00:24:45.894Z,89.17
2023-05-12T00:27:14.032Z,89.12
2023-05-12T00:29:40.889Z,89.07
2023-05-12T00:32:08.374Z,89.00
2023-05-12T00:34:35.344Z,89.15
2023-05-12T00:37:02.136Z,89.30
2023-05-12T00:39:29.118Z,89.21
2023-05-12T00:41:57.621Z,89.15
2023-05-12T00:44:24.874Z,89.15
2023-05-12T00:46:53.235Z,88.97
2023-05-12T00:49:20.965Z,88.97
2023-05-12T00:51:47.932Z,89.07
2023-05-12T00:54:15.184Z,89.04
2023-05-12T00:56:42.355Z,88.86
2023-05-12T00:59:09.705Z,88.95
2023-05-12T01:01:40.641Z,88.94
2023-05-12T01:04:08.174Z,88.99
2023-05-12T01:06:55.059Z,88.91
2023-05-12T01:09:22.216Z,88.76
2023-05-12T01:11:49.170Z,88.57
2023-05-12T01:14:17.182Z,88.54
2023-05-12T01:16:56.208Z,88.55
2023-05-12T01:19:49.458Z,88.50
2023-05-12T01:22:17.656Z,88.48
2023-05-12T01:24:54.957Z,88.41
2023-05-12T01:27:26.024Z,88.40
2023-05-12T01:29:55.151Z,88.39
2023-05-12T01:32:22.389Z,88.47
2023-05-12T01:34:50.700Z,88.44
2023-05-12T01:37:17.937Z,88.47
2023-05-12T01:39:45.076Z,88.41
2023-05-12T01:42:17.303Z,88.42
2023-05-12T01:44:44.395Z,88.43
2023-05-12T01:47:11.515Z,88.35
2023-05-12T01:49:40.425Z,88.41
2023-05-12T01:52:11.326Z,88.38
2023-05-12T01:54:38.213Z,88.34
2023-05-12T01:57:05.624Z,88.33
2023-05-12T01:59:34.824Z,88.51
2023-05-12T02:02:03.120Z,88.50
2023-05-12T02:04:31.275Z,88.62
2023-05-12T02:06:59.362Z,88.56
2023-05-12T02:09:26.283Z,88.52
2023-05-12T02:11:57.079Z,88.40
2023-05-12T02:14:24.133Z,88.44
2023-05-12T02:16:52.914Z,88.44
2023-05-12T02:19:22.095Z,88.33
2023-05-12T02:21:49.509Z,88.33
2023-05-12T02:24:21.335Z,88.35
2023-05-12T02:26:48.320Z,88.42
2023-05-12T02:29:15.282Z,88.60
2023-05-12T02:31:42.807Z,88.67
2023-05-12T02:34:16.216Z,88.52
2023-05-12T02:36:43.297Z,88.57
2023-05-12T02:39:11.627Z,88.57
2023-05-12T02:41:38.893Z,88.70
2023-05-12T02:44:05.749Z,88.64
2023-05-12T02:46:32.949Z,88.70
2023-05-12T02:48:59.855Z,88.65
2023-05-12T02:51:26.888Z,88.60
2023-05-12T02:53:53.773Z,88.64
2023-05-12T02:56:21.012Z,89.15
2023-05-12T02:58:48.032Z,89.23
2023-05-12T03:01:15.013Z,89.08
2023-05-12T03:03:42.451Z,89.56
2023-05-12T03:06:10.024Z,89.71
2023-05-12T03:08:36.881Z,89.80
2023-05-12T03:11:03.822Z,89.92
2023-05-12T03:13:30.645Z,89.94
2023-05-12T03:16:01.560Z,90.04
2023-05-12T03:18:30.097Z,90.05
2023-05-12T03:20:57.088Z,90.05
2023-05-12T03:23:24.963Z,90.30
2023-05-12T03:25:51.987Z,90.51
2023-05-12T03:28:18.795Z,90.50
2023-05-12T03:30:45.714Z,90.40
2023-05-12T03:33:12.694Z,90.43
2023-05-12T03:35:39.528Z,90.84
2023-05-12T03:38:06.344Z,90.76
2023-05-12T03:40:33.459Z,90.65
2023-05-12T03:43:00.350Z,90.80
2023-05-12T03:45:27.137Z,90.80
2023-05-12T03:47:54.085Z,90.85
2023-05-12T03:50:21.383Z,90.92
2023-05-12T03:52:48.485Z,90.93
2023-05-12T03:55:15.400Z,90.81
2023-05-12T03:57:42.922Z,90.94
2023-05-12T04:00:10.486Z,90.95
2023-05-12T04:02:43.774Z,90.90
2023-05-12T04:05:10.993Z,90.78
2023-05-12T04:07:38.366Z,90.71
2023-05-12T04:10:05.957Z,90.60
2023-05-12T04:12:32.992Z,90.54
2023-05-12T04:15:01.357Z,90.57
2023-05-12T04:17:28.321Z,90.49
2023-05-12T04:19:55.356Z,90.39
2023-05-12T04:22:25.583Z,90.43
2023-05-12T04:24:53.108Z,90.47
2023-05-12T04:27:20.041Z,90.24
2023-05-12T04:29:46.995Z,90.24
2023-05-12T04:32:13.963Z,90.29
2023-05-12T04:34:41.586Z,90.24
2023-05-12T04:37:08.759Z,90.21
2023-05-12T04:39:35.842Z,90.30
2023-05-12T04:42:02.868Z,90.16
2023-05-12T04:44:32.377Z,89.99
2023-05-12T04:47:00.109Z,90.02
2023-05-12T04:49:26.964Z,89.99
2023-05-12T04:51:53.727Z,90.22
2023-05-12T04:54:20.763Z,90.24
2023-05-12T04:56:47.973Z,90.21
2023-05-12T04:59:17.832Z,90.46
2023-05-12T05:01:46.703Z,90.41
2023-05-12T05:04:14.147Z,90.37
2023-05-12T05:06:41.234Z,90.31
2023-05-12T05:09:08.970Z,90.24
2023-05-12T05:11:36.109Z,90.19
2023-05-12T05:14:02.960Z,90.41
2023-05-12T05:16:30.212Z,90.49
2023-05-12T05:18:58.412Z,90.43
2023-05-12T05:21:26.254Z,90.47
2023-05-12T05:23:53.301Z,90.61
2023-05-12T05:26:21.670Z,90.47
2023-05-12T05:28:48.547Z,90.54
2023-05-12T05:31:18.601Z,90.63
2023-05-12T05:33:45.401Z,90.77
2023-05-12T05:36:13.284Z,90.76
2023-05-12T05:38:40.343Z,90.75
2023-05-12T05:41:07.354Z,90.95
2023-05-12T05:43:34.826Z,90.83
2023-05-12T05:46:01.871Z,91.11
2023-05-12T05:48:28.800Z,91.20
2023-05-12T05:50:56.373Z,90.89
2023-05-12T05:53:24.791Z,90.41
2023-05-12T05:55:52.700Z,90.36
2023-05-12T05:58:19.728Z,90.63
2023-05-12T06:00:47.404Z,90.55
2023-05-12T06:03:14.276Z,90.82
2023-05-12T06:05:43.384Z,90.62
2023-05-12T06:08:13.510Z,90.81
2023-05-12T06:10:41.305Z,90.73
2023-05-12T06:13:08.329Z,90.77
2023-05-12T06:15:36.078Z,90.95
2023-05-12T06:18:02.995Z,91.05
2023-05-12T06:20:30.323Z,91.18
2023-05-12T06:22:57.171Z,91.05
2023-05-12T06:25:24.220Z,91.04
2023-05-12T06:27:52.940Z,91.02
2023-05-12T06:30:20.017Z,90.90
2023-05-12T06:32:46.906Z,90.89
2023-05-12T06:35:13.997Z,90.63
2023-05-12T06:37:40.991Z,90.48
2023-05-12T06:40:08.379Z,90.58
2023-05-12T06:42:35.192Z,90.67
2023-05-12T06:45:09.776Z,90.48
2023-05-12T06:47:36.687Z,90.38
2023-05-12T06:50:04.520Z,90.41
2023-05-12T06:52:31.562Z,90.46
2023-05-12T06:54:58.370Z,90.23
2023-05-12T06:57:26.209Z,90.05
2023-05-12T06:59:53.358Z,89.92
2023-05-12T07:02:20.413Z,89.60
2023-05-12T07:04:47.245Z,89.30
2023-05-12T07:07:14.257Z,89.01
2023-05-12T07:09:42.426Z,86.12
2023-05-12T07:12:09.399Z,86.74
2023-05-12T07:14:36.368Z,86.76
2023-05-12T07:17:04.036Z,86.93
2023-05-12T07:19:30.896Z,86.74
2023-05-12T07:21:58.830Z,86.95
2023-05-12T07:24:25.770Z,86.93
2023-05-12T07:26:52.715Z,86.89
2023-05-12T07:29:19.553Z,86.58
2023-05-12T07:31:46.738Z,86.67
2023-05-12T07:34:13.583Z,86.82
2023-05-12T07:36:40.505Z,86.39
2023-05-12T07:39:07.326Z,86.55
2023-05-12T07:41:34.567Z,86.39
2023-05-12T07:44:02.476Z,86.38
2023-05-12T07:46:29.439Z,86.19
2023-05-12T07:48:56.427Z,86.18
2023-05-12T07:51:23.575Z,86.12
2023-05-12T07:53:50.399Z,85.70
2023-05-12T07:56:17.345Z,86.06
2023-05-12T07:58:45.377Z,86.03
2023-05-12T08:01:14.156Z,85.87
2023-05-12T08:03:41.120Z,85.94
2023-05-12T08:06:08.393Z,86.19
2023-05-12T08:08:36.543Z,86.16
2023-05-12T08:11:03.531Z,86.01
2023-05-12T08:13:30.618Z,85.84
2023-05-12T08:15:57.516Z,85.97
2023-05-12T08:18:24.358Z,85.87
2023-05-12T08:20:51.370Z,86.32
2023-05-12T08:23:18.494Z,86.24
2023-05-12T08:25:45.530Z,86.19
2023-05-12T08:28:13.132Z,85.92
2023-05-12T08:30:40.830Z,85.45
2023-05-12T08:33:07.871Z,85.47
2023-05-12T08:35:36.045Z,86.03
2023-05-12T08:38:03.147Z,85.80
2023-05-12T08:40:33.201Z,85.42
2023-05-12T08:43:12.373Z,85.39
2023-05-12T08:45:40.514Z,85.10
2023-05-12T08:48:10.916Z,85.06
2023-05-12T08:50:38.841Z,85.16
2023-05-12T08:53:11.068Z,84.79
2023-05-12T08:55:41.947Z,84.91
2023-05-12T08:58:10.038Z,85.01
2023-05-12T09:00:39.110Z,84.88
2023-05-12T09:03:07.376Z,85.01
2023-05-12T09:05:35.484Z,84.94
2023-05-12T09:08:03.088Z,84.85
2023-05-12T09:10:34.591Z,84.74
2023-05-12T09:13:17.649Z,84.87
2023-05-12T09:15:47.438Z,84.61
2023-05-12T09:18:14.331Z,84.62
2023-05-12T09:20:41.256Z,84.03
2023-05-12T09:23:26.172Z,84.90
2023-05-12T09:26:01.475Z,84.50
2023-05-12T09:28:40.919Z,84.63
2023-05-12T09:31:25.204Z,84.69
2023-05-12T09:33:52.442Z,84.97
2023-05-12T09:36:23.160Z,84.67
2023-05-12T09:39:08.305Z,84.53
2023-05-12T09:41:36.429Z,84.48
2023-05-12T09:44:03.636Z,84.39
2023-05-12T09:46:31.164Z,84.31
2023-05-12T09:48:58.706Z,84.45
2023-05-12T09:51:29.389Z,84.12
2023-05-12T09:53:56.853Z,84.42
2023-05-12T09:56:27.872Z,84.28
2023-05-12T09:58:57.284Z,84.20
2023-05-12T10:01:25.746Z,84.38
2023-05-12T10:03:57.481Z,84.19
2023-05-12T10:06:28.611Z,84.29
2023-05-12T10:09:14.263Z,84.69
2023-05-12T10:11:41.539Z,84.77
2023-05-12T10:14:10.047Z,84.45
2023-05-12T10:16:38.277Z,84.52
2023-05-12T10:19:06.152Z,83.97
2023-05-12T10:21:33.400Z,84.59
2023-05-12T10:24:04.014Z,84.59
2023-05-12T10:26:35.786Z,84.63
2023-05-12T10:29:02.934Z,84.54
2023-05-12T10:31:30.465Z,84.41
2023-05-12T10:34:02.754Z,84.47
2023-05-12T10:36:29.998Z,84.09
2023-05-12T10:39:06.054Z,83.82
2023-05-12T10:41:35.245Z,83.69
2023-05-12T10:44:02.336Z,84.02
2023-05-12T10:46:30.610Z,83.75
2023-05-12T10:49:07.070Z,83.83
2023-05-12T10:51:46.943Z,83.85
2023-05-12T10:54:20.294Z,83.53
2023-05-12T10:56:47.915Z,83.39
2023-05-12T10:59:27.484Z,83.13
2023-05-12T11:02:03.819Z,83.42
2023-05-12T11:04:46.709Z,83.70
2023-05-12T11:07:16.949Z,83.94
2023-05-12T11:12:16.636Z,83.17
2023-05-12T11:14:45.708Z,83.38
2023-05-12T11:17:12.999Z,83.13
2023-05-12T11:19:40.750Z,83.07
2023-05-12T11:22:10.631Z,82.76
2023-05-12T11:24:39.584Z,82.89
2023-05-12T11:27:08.172Z,82.87
2023-05-12T11:29:35.041Z,83.06
2023-05-12T11:32:02.020Z,83.24
2023-05-12T11:34:29.139Z,82.67
2023-05-12T11:36:56.600Z,82.64
2023-05-12T11:39:28.363Z,82.77
2023-05-12T11:42:05.534Z,82.87
2023-05-12T11:44:37.046Z,82.51
2023-05-12T11:47:14.383Z,82.43
2023-05-12T11:49:49.321Z,82.36
2023-05-12T11:52:17.314Z,82.28
2023-05-12T11:54:52.277Z,82.54
2023-05-12T11:57:30.371Z,82.51
2023-05-12T12:00:04.785Z,82.21
2023-05-12T12:02:37.432Z,82.33
2023-05-12T12:05:07.811Z,82.31
2023-05-12T12:07:36.766Z,81.64
2023-05-12T12:10:13.949Z,81.70
2023-05-12T12:12:44.410Z,82.10
2023-05-12T12:15:12.055Z,81.82
2023-05-12T12:17:40.036Z,81.62
2023-05-12T12:20:09.217Z,81.65
2023-05-12T12:22:36.333Z,81.85
2023-05-12T12:25:04.082Z,82.12
2023-05-12T12:27:30.934Z,81.79
2023-05-12T12:29:57.802Z,81.23
2023-05-12T12:32:24.891Z,82.17
2023-05-12T12:34:52.814Z,81.39
2023-05-12T12:37:19.606Z,81.43
2023-05-12T12:39:47.874Z,81.88
2023-05-12T12:42:15.634Z,81.48
2023-05-12T12:44:43.067Z,81.57
2023-05-12T12:47:10.007Z,81.39
2023-05-12T12:49:37.123Z,81.33
2023-05-12T12:52:04.114Z,81.30
2023-05-12T12:54:31.009Z,81.59
2023-05-12T12:56:58.479Z,81.16
2023-05-12T12:59:25.446Z,81.54
2023-05-12T13:01:52.898Z,81.33
2023-05-12T13:04:23.014Z,81.38
2023-05-12T13:06:50.184Z,81.65
2023-05-12T13:09:19.962Z,81.94
2023-05-12T13:11:47.908Z,81.91
2023-05-12T13:14:14.712Z,82.10
2023-05-12T13:16:42.032Z,82.02
2023-05-12T13:19:09.055Z,81.86
2023-05-12T13:21:36.119Z,82.12
2023-05-12T13:24:03.268Z,82.05
2023-05-12T13:26:30.149Z,82.20
2023-05-12T13:28:57.325Z,82.19
2023-05-12T13:31:24.459Z,82.16
2023-05-12T13:33:51.292Z,81.83
2023-05-12T13:36:18.090Z,81.88
2023-05-12T13:38:47.316Z,81.77
2023-05-12T13:41:14.243Z,82.01
2023-05-12T13:43:41.033Z,81.86
2023-05-12T13:46:08.498Z,82.23
2023-05-12T13:48:35.782Z,82.38
2023-05-12T13:51:02.656Z,82.36
2023-05-12T13:53:29.530Z,82.07
2023-05-12T13:55:56.463Z,81.88
2023-05-12T13:58:23.263Z,81.94
2023-05-12T14:00:50.324Z,82.01
2023-05-12T14:03:17.074Z,81.92
2023-05-12T14:05:43.874Z,82.13
2023-05-12T14:08:10.755Z,82.02
2023-05-12T14:10:37.868Z,81.94
2023-05-12T14:13:05.769Z,81.95
2023-05-12T14:15:47.293Z,82.20
2023-05-12T14:18:15.453Z,81.80
2023-05-12T14:20:42.595Z,82.17
2023-05-12T14:23:09.394Z,82.17
2023-05-12T14:25:36.124Z,82.00
2023-05-12T14:28:03.792Z,81.62
2023-05-12T14:30:30.966Z,81.88
2023-05-12T14:32:57.839Z,81.91
2023-05-12T14:35:27.928Z,82.13
2023-05-12T14:37:55.777Z,81.34
2023-05-12T14:40:23.403Z,81.91
2023-05-12T14:42:50.803Z,81.72
2023-05-12T14:45:17.832Z,81.34
2023-05-12T14:47:45.089Z,81.76
2023-05-12T14:50:12.191Z,81.66
2023-05-12T14:52:39.191Z,81.06
2023-05-12T14:55:12.338Z,81.68
2023-05-12T14:57:40.867Z,80.64
2023-05-12T15:00:13.992Z,81.46
2023-05-12T15:02:42.676Z,81.36
2023-05-12T15:05:11.159Z,81.11
2023-05-12T15:07:38.289Z,81.18
2023-05-12T15:10:06.108Z,80.71
2023-05-12T15:12:33.905Z,81.23
2023-05-12T15:15:08.513Z,80.93
2023-05-12T15:17:35.591Z,81.62
2023-05-12T15:20:03.050Z,81.00
2023-05-12T15:22:31.590Z,81.46
2023-05-12T15:24:59.352Z,81.17
2023-05-12T15:27:26.498Z,81.09
2023-05-12T15:29:54.045Z,81.07
2023-05-12T15:32:20.931Z,81.09
2023-05-12T15:34:47.769Z,80.37
2023-05-12T15:37:16.247Z,80.52
2023-05-12T15:39:43.387Z,80.41
2023-05-12T15:42:10.672Z,80.79
2023-05-12T15:44:39.216Z,80.62
2023-05-12T15:47:07.021Z,80.57
2023-05-12T15:49:33.983Z,80.33
2023-05-12T15:52:01.114Z,80.30
2023-05-12T15:54:28.350Z,80.22
2023-05-12T15:56:55.365Z,80.52
2023-05-12T15:59:22.351Z,80.51
2023-05-12T16:01:49.337Z,80.72
2023-05-12T16:04:19.006Z,80.65
2023-05-12T16:06:46.429Z,80.86
2023-05-12T16:09:13.724Z,80.82
2023-05-12T16:11:40.720Z,80.41
2023-05-12T16:14:07.622Z,80.38
2023-05-12T16:16:34.977Z,80.19
2023-05-12T16:19:02.013Z,80.38
2023-05-12T16:21:28.959Z,80.59
2023-05-12T16:23:55.727Z,80.65
2023-05-12T16:26:23.850Z,80.61
2023-05-12T16:28:51.094Z,80.24
2023-05-12T16:31:19.740Z,79.66
2023-05-12T16:33:46.857Z,79.46
2023-05-12T16:36:15.342Z,78.98
2023-05-12T16:38:43.012Z,79.15
2023-05-12T16:41:10.202Z,79.73
2023-05-12T16:43:38.170Z,80.29
2023-05-12T16:46:05.287Z,80.08
2023-05-12T16:48:35.544Z,80.65
2023-05-12T16:51:05.588Z,80.47
2023-05-12T16:53:32.607Z,80.58
2023-05-12T16:55:59.751Z,80.18
2023-05-12T16:58:28.398Z,80.25
2023-05-12T17:00:55.279Z,79.82
2023-05-12T17:03:22.883Z,80.13
2023-05-12T17:05:50.196Z,80.03
2023-05-12T17:08:19.000Z,79.40
2023-05-12T17:10:46.480Z,79.66
2023-05-12T17:13:13.588Z,79.53
2023-05-12T17:15:40.696Z,79.76
2023-05-12T17:18:07.708Z,80.42
2023-05-12T17:20:34.834Z,80.26
2023-05-12T17:23:02.597Z,80.15
2023-05-12T17:25:31.242Z,80.27
2023-05-12T17:27:58.534Z,80.18
2023-05-12T17:30:25.543Z,80.24
2023-05-12T17:32:52.406Z,80.20
2023-05-12T17:35:19.706Z,80.43
2023-05-12T17:37:52.547Z,80.22
2023-05-12T17:40:19.652Z,80.23
2023-05-12T17:42:46.603Z,80.33
2023-05-12T17:45:16.257Z,80.42
2023-05-12T17:47:43.841Z,80.48
2023-05-12T17:50:12.219Z,80.46
2023-05-12T17:52:39.613Z,80.50
2023-05-12T17:55:07.138Z,80.80
2023-05-12T17:57:34.410Z,80.65
2023-05-12T18:00:05.850Z,80.71
2023-05-12T18:02:41.295Z,80.80
2023-05-12T18:05:09.886Z,80.81
2023-05-12T18:07:37.043Z,80.81
2023-05-12T18:10:07.944Z,80.50
2023-05-12T18:12:35.441Z,80.81
2023-05-12T18:15:03.148Z,80.64
2023-05-12T18:17:30.512Z,80.68
2023-05-12T18:19:57.353Z,80.65
2023-05-12T18:22:24.491Z,80.62
2023-05-12T18:24:51.471Z,80.56
2023-05-12T18:27:18.384Z,80.73
2023-05-12T18:29:45.283Z,80.70
2023-05-12T18:32:12.284Z,80.83
2023-05-12T18:34:39.173Z,80.78
2023-05-12T18:37:05.992Z,80.75
2023-05-12T18:39:32.759Z,80.95
2023-05-12T18:41:59.761Z,81.18
2023-05-12T18:44:26.739Z,81.17
2023-05-12T18:46:53.846Z,81.23
2023-05-12T18:49:20.776Z,81.36
2023-05-12T18:51:47.727Z,81.68
2023-05-12T18:54:14.568Z,81.65
2023-05-12T18:56:41.691Z,81.73
2023-05-12T18:59:08.565Z,81.87
2023-05-12T19:01:35.738Z,82.00
2023-05-12T19:04:02.616Z,82.01
2023-05-12T19:06:30.110Z,82.13
2023-05-12T19:08:57.209Z,82.18
2023-05-12T19:11:24.171Z,82.22
2023-05-12T19:13:52.316Z,82.40
2023-05-12T19:16:19.401Z,82.42
2023-05-12T19:18:46.264Z,82.36
2023-05-12T19:21:15.941Z,82.52
2023-05-12T19:23:42.924Z,82.39
2023-05-12T19:26:11.088Z,82.44
2023-05-12T19:28:38.000Z,82.66
2023-05-12T19:31:05.030Z,82.81
2023-05-12T19:33:32.900Z,82.78
2023-05-12T19:35:59.839Z,82.74
2023-05-12T19:38:26.737Z,82.59
2023-05-12T19:40:53.736Z,82.71
2023-05-12T19:43:20.623Z,82.84
2023-05-12T19:45:47.564Z,82.63
2023-05-12T19:48:15.134Z,82.68
2023-05-12T19:50:42.083Z,82.63
2023-05-12T19:53:09.162Z,82.76
2023-05-12T19:55:36.597Z,82.55
2023-05-12T19:58:03.525Z,82.61
2023-05-12T20:00:31.818Z,82.91
2023-05-12T20:02:58.706Z,82.95
2023-05-12T20:05:26.409Z,82.90
2023-05-12T20:07:53.288Z,83.24
2023-05-12T20:10:20.243Z,82.81
2023-05-12T20:12:47.028Z,83.23
2023-05-12T20:15:14.189Z,83.16
2023-05-12T20:17:41.065Z,83.19
2023-05-12T20:20:11.065Z,82.93
2023-05-12T20:22:38.986Z,82.84
2023-05-12T20:25:06.323Z,83.07
2023-05-12T20:27:33.786Z,82.96
2023-05-12T20:30:00.795Z,82.60
2023-05-12T20:32:27.731Z,82.69
2023-05-12T20:34:54.562Z,82.65
2023-05-12T20:37:21.824Z,82.72
2023-05-12T20:39:48.676Z,82.68
2023-05-12T20:42:15.627Z,82.87
2023-05-12T20:44:42.545Z,82.78
2023-05-12T20:47:09.766Z,82.76
2023-05-12T20:49:36.844Z,82.78
2023-05-12T20:52:04.201Z,82.97
2023-05-12T20:54:31.040Z,83.07
2023-05-12T20:56:58.021Z,83.00
2023-05-12T20:59:25.043Z,82.87
2023-05-12T21:01:52.074Z,82.81
2023-05-12T21:04:19.078Z,83.03
2023-05-12T21:06:46.731Z,82.75
2023-05-12T21:09:13.521Z,83.02
2023-05-12T21:11:41.606Z,82.90
2023-05-12T21:14:08.547Z,83.10
2023-05-12T21:16:35.640Z,82.87
2023-05-12T21:19:02.802Z,83.28
2023-05-12T21:21:29.756Z,83.24
2023-05-12T21:23:56.528Z,83.07
2023-05-12T21:26:23.369Z,83.12
2023-05-12T21:28:50.366Z,83.09
2023-05-12T21:31:17.326Z,83.08
2023-05-12T21:33:44.200Z,83.04
2023-05-12T21:36:11.280Z,83.28
2023-05-12T21:38:38.102Z,83.13
2023-05-12T21:41:05.152Z,83.13
2023-05-12T21:43:32.111Z,83.06
2023-05-12T21:46:04.931Z,83.09
2023-05-12T21:48:33.431Z,83.04
2023-05-12T21:51:01.720Z,83.03
2023-05-12T21:53:29.289Z,83.05
2023-05-12T21:55:56.275Z,83.00
2023-05-12T21:58:23.801Z,83.09
2023-05-12T22:00:51.582Z,83.16
2023-05-12T22:03:20.594Z,83.08
2023-05-12T22:05:47.816Z,83.09
2023-05-12T22:08:14.837Z,83.25
2023-05-12T22:10:41.796Z,83.12
2023-05-12T22:13:08.983Z,83.17
2023-05-12T22:15:35.924Z,83.14
2023-05-12T22:18:03.468Z,83.12
2023-05-12T22:20:33.500Z,83.07
2023-05-12T22:23:00.664Z,83.12
2023-05-12T22:25:27.597Z,83.34
2023-05-12T22:27:54.528Z,83.23
2023-05-12T22:30:21.785Z,83.08
2023-05-12T22:32:49.025Z,82.98
2023-05-12T22:35:16.351Z,83.32
2023-05-12T22:37:43.841Z,83.23
2023-05-12T22:40:10.908Z,83.09
2023-05-12T22:42:37.911Z,82.99
2023-05-12T22:45:05.088Z,82.95
2023-05-12T22:47:32.465Z,83.03
2023-05-12T22:49:59.775Z,83.07
2023-05-12T22:52:27.334Z,82.95
2023-05-12T22:54:55.142Z,83.06
2023-05-12T22:57:22.846Z,83.03
2023-05-12T22:59:50.102Z,83.07
2023-05-12T23:02:17.261Z,83.16
2023-05-12T23:04:44.292Z,83.07
2023-05-12T23:07:11.547Z,83.06
2023-05-12T23:09:38.433Z,83.25
2023-05-12T23:12:05.676Z,83.12
2023-05-12T23:14:32.585Z,83.09
2023-05-12T23:16:59.637Z,83.09
2023-05-12T23:19:26.422Z,83.07
2023-05-12T23:21:53.317Z,83.14
2023-05-12T23:24:20.303Z,83.00
2023-05-12T23:26:47.207Z,83.07
2023-05-12T23:29:14.017Z,83.00
2023-05-12T23:31:40.971Z,82.99
2023-05-12T23:34:07.756Z,82.96
2023-05-12T23:36:34.766Z,82.96
2023-05-12T23:39:01.596Z,83.00
2023-05-12T23:41:31.681Z,82.94
2023-05-12T23:43:58.938Z,82.93
2023-05-12T23:46:26.243Z,82.78
2023-05-12T23:48:55.687Z,82.82
2023-05-12T23:51:23.337Z,82.84
2023-05-12T23:53:50.292Z,82.88
2023-05-12T23:56:17.193Z,82.91
2023-05-12T23:58:44.251Z,82.92
